sensor_id;sensor_type;location;lat;lon;timestamp;P1;durP1;ratioP1;P2;durP2;ratioP2
5491;SDS011;2768;53.540;10.224;2023-03-04T00:02:59;5.87;;;1.87;;
5491;SDS011;2768;53.540;10.224;2023-03-04T00:08:53;8.00;;;3.30;;
5491;SDS011;2768;53.540;10.224;2023-03-04T00:14:47;7.93;;;2.53;;
5491;SDS011;2768;53.540;10.224;2023-03-04T00:20:40;7.47;;;2.60;;
5491;SDS011;2768;53.540;10.224;2023-03-04T00:26:34;8.00;;;1.90;;
5491;SDS011;2768;53.540;10.224;2023-03-04T00:32:28;8.80;;;2.30;;
5491;SDS011;2768;53.540;10.224;2023-03-04T00:38:21;7.73;;;2.50;;
5491;SDS011;2768;53.540;10.224;2023-03-04T00:44:14;6.57;;;2.87;;
5491;SDS011;2768;53.540;10.224;2023-03-04T00:50:10;2.83;;;2.13;;
5491;SDS011;2768;53.540;10.224;2023-03-04T00:56:04;4.53;;;2.30;;
5491;SDS011;2768;53.540;10.224;2023-03-04T01:01:58;5.87;;;2.63;;
5491;SDS011;2768;53.540;10.224;2023-03-04T01:07:52;7.40;;;2.33;;
5491;SDS011;2768;53.540;10.224;2023-03-04T01:13:46;9.60;;;2.63;;
5491;SDS011;2768;53.540;10.224;2023-03-04T01:19:40;8.67;;;2.20;;
5491;SDS011;2768;53.540;10.224;2023-03-04T01:25:34;9.30;;;2.63;;
5491;SDS011;2768;53.540;10.224;2023-03-04T01:31:28;3.40;;;1.70;;
5491;SDS011;2768;53.540;10.224;2023-03-04T01:37:22;9.27;;;1.70;;
5491;SDS011;2768;53.540;10.224;2023-03-04T01:43:18;5.90;;;1.90;;
5491;SDS011;2768;53.540;10.224;2023-03-04T01:49:14;5.70;;;1.50;;
5491;SDS011;2768;53.540;10.224;2023-03-04T01:55:10;6.47;;;1.20;;
5491;SDS011;2768;53.540;10.224;2023-03-04T02:01:09;6.40;;;1.63;;
5491;SDS011;2768;53.540;10.224;2023-03-04T02:07:02;6.73;;;1.60;;
5491;SDS011;2768;53.540;10.224;2023-03-04T02:12:58;10.83;;;1.60;;
5491;SDS011;2768;53.540;10.224;2023-03-04T02:18:54;6.10;;;1.50;;
5491;SDS011;2768;53.540;10.224;2023-03-04T02:24:48;5.93;;;1.60;;
5491;SDS011;2768;53.540;10.224;2023-03-04T02:30:48;5.93;;;1.90;;
5491;SDS011;2768;53.540;10.224;2023-03-04T02:36:41;7.60;;;1.53;;
5491;SDS011;2768;53.540;10.224;2023-03-04T02:50:07;6.37;;;1.70;;
5491;SDS011;2768;53.540;10.224;2023-03-04T02:56:01;5.50;;;1.73;;
5491;SDS011;2768;53.540;10.224;2023-03-04T03:01:59;3.63;;;1.33;;
5491;SDS011;2768;53.540;10.224;2023-03-04T03:07:54;6.13;;;1.83;;
5491;SDS011;2768;53.540;10.224;2023-03-04T03:13:48;6.37;;;2.20;;
5491;SDS011;2768;53.540;10.224;2023-03-04T03:19:42;6.83;;;1.70;;
5491;SDS011;2768;53.540;10.224;2023-03-04T03:25:37;4.93;;;1.80;;
5491;SDS011;2768;53.540;10.224;2023-03-04T03:31:30;6.30;;;1.80;;
5491;SDS011;2768;53.540;10.224;2023-03-04T03:37:23;6.13;;;1.97;;
5491;SDS011;2768;53.540;10.224;2023-03-04T03:43:18;4.90;;;1.70;;
5491;SDS011;2768;53.540;10.224;2023-03-04T03:49:11;4.00;;;1.90;;
5491;SDS011;2768;53.540;10.224;2023-03-04T03:55:04;11.07;;;1.90;;
5491;SDS011;2768;53.540;10.224;2023-03-04T04:00:59;4.60;;;2.40;;
5491;SDS011;2768;53.540;10.224;2023-03-04T04:06:52;4.70;;;1.80;;
5491;SDS011;2768;53.540;10.224;2023-03-04T04:12:45;6.77;;;1.80;;
5491;SDS011;2768;53.540;10.224;2023-03-04T04:18:40;4.73;;;1.63;;
5491;SDS011;2768;53.540;10.224;2023-03-04T04:24:33;4.77;;;2.10;;
5491;SDS011;2768;53.540;10.224;2023-03-04T04:30:26;7.73;;;1.87;;
5491;SDS011;2768;53.540;10.224;2023-03-04T04:36:21;7.70;;;2.07;;
5491;SDS011;2768;53.540;10.224;2023-03-04T04:42:14;6.20;;;1.70;;
5491;SDS011;2768;53.540;10.224;2023-03-04T04:48:07;5.57;;;1.70;;
5491;SDS011;2768;53.540;10.224;2023-03-04T04:54:02;3.30;;;1.53;;
5491;SDS011;2768;53.540;10.224;2023-03-04T04:59:55;7.33;;;1.87;;
5491;SDS011;2768;53.540;10.224;2023-03-04T05:05:48;5.00;;;1.40;;
5491;SDS011;2768;53.540;10.224;2023-03-04T05:11:43;5.87;;;1.73;;
5491;SDS011;2768;53.540;10.224;2023-03-04T05:24:12;10.87;;;2.53;;
5491;SDS011;2768;53.540;10.224;2023-03-04T05:30:08;7.03;;;2.40;;
5491;SDS011;2768;53.540;10.224;2023-03-04T05:36:02;10.67;;;2.30;;
5491;SDS011;2768;53.540;10.224;2023-03-04T05:41:55;6.80;;;1.80;;
5491;SDS011;2768;53.540;10.224;2023-03-04T05:47:50;6.93;;;2.23;;
5491;SDS011;2768;53.540;10.224;2023-03-04T05:53:43;17.93;;;2.87;;
5491;SDS011;2768;53.540;10.224;2023-03-04T05:59:36;10.80;;;2.30;;
5491;SDS011;2768;53.540;10.224;2023-03-04T06:05:31;9.80;;;1.87;;
5491;SDS011;2768;53.540;10.224;2023-03-04T06:11:24;9.37;;;1.90;;
5491;SDS011;2768;53.540;10.224;2023-03-04T06:17:17;12.93;;;3.20;;
5491;SDS011;2768;53.540;10.224;2023-03-04T06:23:11;14.53;;;2.40;;
5491;SDS011;2768;53.540;10.224;2023-03-04T06:29:05;24.73;;;3.93;;
5491;SDS011;2768;53.540;10.224;2023-03-04T06:34:58;14.90;;;3.57;;
5491;SDS011;2768;53.540;10.224;2023-03-04T06:40:52;24.60;;;3.60;;
5491;SDS011;2768;53.540;10.224;2023-03-04T06:46:47;10.77;;;3.57;;
5491;SDS011;2768;53.540;10.224;2023-03-04T06:52:41;12.70;;;2.83;;
5491;SDS011;2768;53.540;10.224;2023-03-04T06:58:36;14.93;;;2.83;;
5491;SDS011;2768;53.540;10.224;2023-03-04T07:04:29;10.87;;;2.97;;
5491;SDS011;2768;53.540;10.224;2023-03-04T07:10:22;13.40;;;3.13;;
5491;SDS011;2768;53.540;10.224;2023-03-04T07:16:18;16.80;;;3.10;;
5491;SDS011;2768;53.540;10.224;2023-03-04T07:22:12;14.37;;;2.87;;
5491;SDS011;2768;53.540;10.224;2023-03-04T07:28:05;11.83;;;2.83;;
5491;SDS011;2768;53.540;10.224;2023-03-04T07:34:01;7.63;;;2.60;;
5491;SDS011;2768;53.540;10.224;2023-03-04T07:39:55;12.27;;;2.77;;
5491;SDS011;2768;53.540;10.224;2023-03-04T07:45:48;8.87;;;2.50;;
5491;SDS011;2768;53.540;10.224;2023-03-04T07:51:43;10.00;;;2.37;;
5491;SDS011;2768;53.540;10.224;2023-03-04T07:57:37;14.90;;;2.80;;
5491;SDS011;2768;53.540;10.224;2023-03-04T08:03:31;16.60;;;3.77;;
5491;SDS011;2768;53.540;10.224;2023-03-04T08:09:25;10.17;;;2.70;;
5491;SDS011;2768;53.540;10.224;2023-03-04T08:15:18;11.57;;;2.80;;
5491;SDS011;2768;53.540;10.224;2023-03-04T08:21:12;14.37;;;3.80;;
5491;SDS011;2768;53.540;10.224;2023-03-04T08:27:08;12.50;;;3.43;;
5491;SDS011;2768;53.540;10.224;2023-03-04T08:33:02;16.10;;;3.03;;
5491;SDS011;2768;53.540;10.224;2023-03-04T08:38:55;10.53;;;3.53;;
5491;SDS011;2768;53.540;10.224;2023-03-04T08:44:50;23.30;;;4.23;;
5491;SDS011;2768;53.540;10.224;2023-03-04T08:50:43;17.70;;;4.57;;
5491;SDS011;2768;53.540;10.224;2023-03-04T08:56:37;11.33;;;3.50;;
5491;SDS011;2768;53.540;10.224;2023-03-04T09:02:33;13.03;;;3.70;;
5491;SDS011;2768;53.540;10.224;2023-03-04T09:08:26;15.47;;;4.00;;
5491;SDS011;2768;53.540;10.224;2023-03-04T09:14:19;13.37;;;3.40;;
5491;SDS011;2768;53.540;10.224;2023-03-04T09:20:14;12.47;;;4.37;;
5491;SDS011;2768;53.540;10.224;2023-03-04T09:26:14;14.50;;;4.73;;
5491;SDS011;2768;53.540;10.224;2023-03-04T09:32:10;12.90;;;3.63;;
5491;SDS011;2768;53.540;10.224;2023-03-04T09:38:04;13.97;;;3.23;;
5491;SDS011;2768;53.540;10.224;2023-03-04T09:43:58;16.10;;;4.60;;
5491;SDS011;2768;53.540;10.224;2023-03-04T09:49:53;11.77;;;3.90;;
5491;SDS011;2768;53.540;10.224;2023-03-04T09:55:50;17.43;;;3.13;;
5491;SDS011;2768;53.540;10.224;2023-03-04T10:01:46;14.47;;;3.50;;
5491;SDS011;2768;53.540;10.224;2023-03-04T10:07:42;16.23;;;4.00;;
5491;SDS011;2768;53.540;10.224;2023-03-04T10:13:49;11.63;;;3.40;;
5491;SDS011;2768;53.540;10.224;2023-03-04T10:19:54;12.50;;;3.33;;
5491;SDS011;2768;53.540;10.224;2023-03-04T10:25:50;14.27;;;3.60;;
5491;SDS011;2768;53.540;10.224;2023-03-04T10:31:46;14.07;;;2.70;;
5491;SDS011;2768;53.540;10.224;2023-03-04T10:37:44;14.57;;;3.37;;
5491;SDS011;2768;53.540;10.224;2023-03-04T10:43:39;14.47;;;3.77;;
5491;SDS011;2768;53.540;10.224;2023-03-04T10:49:36;10.67;;;3.23;;
5491;SDS011;2768;53.540;10.224;2023-03-04T10:55:42;15.73;;;4.80;;
5491;SDS011;2768;53.540;10.224;2023-03-04T11:01:36;12.93;;;2.93;;
5491;SDS011;2768;53.540;10.224;2023-03-04T11:07:31;9.37;;;3.27;;
5491;SDS011;2768;53.540;10.224;2023-03-04T11:13:49;11.33;;;3.50;;
5491;SDS011;2768;53.540;10.224;2023-03-04T11:19:44;21.50;;;4.30;;
5491;SDS011;2768;53.540;10.224;2023-03-04T11:25:46;14.03;;;3.30;;
5491;SDS011;2768;53.540;10.224;2023-03-04T11:31:42;10.47;;;4.33;;
5491;SDS011;2768;53.540;10.224;2023-03-04T11:37:39;16.37;;;4.30;;
5491;SDS011;2768;53.540;10.224;2023-03-04T11:43:40;14.13;;;3.30;;
5491;SDS011;2768;53.540;10.224;2023-03-04T11:49:53;9.20;;;3.20;;
5491;SDS011;2768;53.540;10.224;2023-03-04T11:56:06;12.03;;;2.97;;
5491;SDS011;2768;53.540;10.224;2023-03-04T12:02:16;12.97;;;3.33;;
5491;SDS011;2768;53.540;10.224;2023-03-04T12:08:19;12.00;;;2.97;;
5491;SDS011;2768;53.540;10.224;2023-03-04T12:14:24;10.60;;;2.90;;
5491;SDS011;2768;53.540;10.224;2023-03-04T12:20:25;15.80;;;3.33;;
5491;SDS011;2768;53.540;10.224;2023-03-04T12:26:37;10.80;;;3.43;;
5491;SDS011;2768;53.540;10.224;2023-03-04T12:32:34;14.90;;;3.70;;
5491;SDS011;2768;53.540;10.224;2023-03-04T12:38:42;11.63;;;3.10;;
5491;SDS011;2768;53.540;10.224;2023-03-04T12:44:45;13.13;;;3.70;;
5491;SDS011;2768;53.540;10.224;2023-03-04T12:50:49;12.03;;;3.00;;
5491;SDS011;2768;53.540;10.224;2023-03-04T12:56:55;13.93;;;4.13;;
5491;SDS011;2768;53.540;10.224;2023-03-04T13:02:56;12.87;;;3.00;;
5491;SDS011;2768;53.540;10.224;2023-03-04T13:09:01;7.67;;;2.33;;
5491;SDS011;2768;53.540;10.224;2023-03-04T13:21:27;10.20;;;3.20;;
5491;SDS011;2768;53.540;10.224;2023-03-04T13:46:27;13.70;;;3.77;;
5491;SDS011;2768;53.540;10.224;2023-03-04T13:52:36;8.97;;;2.97;;
5491;SDS011;2768;53.540;10.224;2023-03-04T13:58:31;12.87;;;2.90;;
5491;SDS011;2768;53.540;10.224;2023-03-04T14:04:26;11.30;;;3.93;;
5491;SDS011;2768;53.540;10.224;2023-03-04T14:10:23;11.43;;;3.17;;
5491;SDS011;2768;53.540;10.224;2023-03-04T14:16:18;16.60;;;3.13;;
5491;SDS011;2768;53.540;10.224;2023-03-04T14:22:19;11.30;;;2.67;;
5491;SDS011;2768;53.540;10.224;2023-03-04T14:28:15;10.43;;;2.93;;
5491;SDS011;2768;53.540;10.224;2023-03-04T14:34:11;9.77;;;3.20;;
5491;SDS011;2768;53.540;10.224;2023-03-04T14:40:12;6.43;;;2.43;;
5491;SDS011;2768;53.540;10.224;2023-03-04T14:46:14;8.23;;;3.30;;
5491;SDS011;2768;53.540;10.224;2023-03-04T14:52:26;12.97;;;2.77;;
5491;SDS011;2768;53.540;10.224;2023-03-04T14:58:26;8.20;;;2.80;;
5491;SDS011;2768;53.540;10.224;2023-03-04T15:04:21;14.07;;;3.47;;
5491;SDS011;2768;53.540;10.224;2023-03-04T15:10:18;7.50;;;2.77;;
5491;SDS011;2768;53.540;10.224;2023-03-04T15:16:14;8.67;;;2.87;;
5491;SDS011;2768;53.540;10.224;2023-03-04T15:22:10;6.47;;;2.70;;
5491;SDS011;2768;53.540;10.224;2023-03-04T15:28:05;6.03;;;2.60;;
5491;SDS011;2768;53.540;10.224;2023-03-04T15:34:07;12.53;;;2.90;;
5491;SDS011;2768;53.540;10.224;2023-03-04T15:40:06;8.70;;;3.23;;
5491;SDS011;2768;53.540;10.224;2023-03-04T15:46:07;6.97;;;2.53;;
5491;SDS011;2768;53.540;10.224;2023-03-04T15:52:01;9.63;;;2.60;;
5491;SDS011;2768;53.540;10.224;2023-03-04T15:57:57;12.20;;;2.90;;
5491;SDS011;2768;53.540;10.224;2023-03-04T16:03:51;12.50;;;3.10;;
5491;SDS011;2768;53.540;10.224;2023-03-04T16:09:44;10.87;;;2.50;;
5491;SDS011;2768;53.540;10.224;2023-03-04T16:15:42;9.67;;;2.83;;
5491;SDS011;2768;53.540;10.224;2023-03-04T16:21:35;12.53;;;2.40;;
5491;SDS011;2768;53.540;10.224;2023-03-04T16:27:28;9.80;;;3.10;;
5491;SDS011;2768;53.540;10.224;2023-03-04T16:33:23;7.23;;;2.60;;
5491;SDS011;2768;53.540;10.224;2023-03-04T16:39:18;11.73;;;3.40;;
5491;SDS011;2768;53.540;10.224;2023-03-04T16:45:14;7.43;;;2.17;;
5491;SDS011;2768;53.540;10.224;2023-03-04T16:51:11;7.43;;;2.60;;
5491;SDS011;2768;53.540;10.224;2023-03-04T16:57:06;12.17;;;2.50;;
5491;SDS011;2768;53.540;10.224;2023-03-04T17:03:01;9.20;;;1.97;;
5491;SDS011;2768;53.540;10.224;2023-03-04T17:08:56;7.70;;;2.10;;
5491;SDS011;2768;53.540;10.224;2023-03-04T17:14:49;10.13;;;2.17;;
5491;SDS011;2768;53.540;10.224;2023-03-04T17:20:42;6.67;;;2.57;;
5491;SDS011;2768;53.540;10.224;2023-03-04T17:26:36;9.63;;;2.47;;
5491;SDS011;2768;53.540;10.224;2023-03-04T17:32:31;9.07;;;2.43;;
5491;SDS011;2768;53.540;10.224;2023-03-04T17:38:24;9.27;;;2.53;;
5491;SDS011;2768;53.540;10.224;2023-03-04T17:44:18;9.83;;;3.13;;
5491;SDS011;2768;53.540;10.224;2023-03-04T17:50:12;3.33;;;2.10;;
5491;SDS011;2768;53.540;10.224;2023-03-04T17:56:06;5.30;;;2.30;;
5491;SDS011;2768;53.540;10.224;2023-03-04T18:02:02;16.00;;;2.70;;
5491;SDS011;2768;53.540;10.224;2023-03-04T18:07:56;8.30;;;2.53;;
5491;SDS011;2768;53.540;10.224;2023-03-04T18:13:49;11.70;;;2.47;;
5491;SDS011;2768;53.540;10.224;2023-03-04T18:19:48;7.10;;;1.77;;
5491;SDS011;2768;53.540;10.224;2023-03-04T18:25:41;6.57;;;2.13;;
5491;SDS011;2768;53.540;10.224;2023-03-04T18:31:34;8.90;;;2.80;;
5491;SDS011;2768;53.540;10.224;2023-03-04T18:37:29;9.10;;;3.20;;
5491;SDS011;2768;53.540;10.224;2023-03-04T18:43:22;8.03;;;2.30;;
5491;SDS011;2768;53.540;10.224;2023-03-04T18:49:16;6.00;;;2.17;;
5491;SDS011;2768;53.540;10.224;2023-03-04T18:55:13;6.93;;;2.90;;
5491;SDS011;2768;53.540;10.224;2023-03-04T19:01:06;8.83;;;2.37;;
5491;SDS011;2768;53.540;10.224;2023-03-04T19:07:02;6.43;;;2.30;;
5491;SDS011;2768;53.540;10.224;2023-03-04T19:12:56;6.77;;;1.90;;
5491;SDS011;2768;53.540;10.224;2023-03-04T19:18:49;11.30;;;2.10;;
5491;SDS011;2768;53.540;10.224;2023-03-04T19:24:43;10.23;;;2.73;;
5491;SDS011;2768;53.540;10.224;2023-03-04T19:30:38;6.07;;;1.70;;
5491;SDS011;2768;53.540;10.224;2023-03-04T19:36:32;8.03;;;2.10;;
5491;SDS011;2768;53.540;10.224;2023-03-04T19:42:25;3.80;;;1.77;;
5491;SDS011;2768;53.540;10.224;2023-03-04T19:48:20;7.97;;;2.23;;
5491;SDS011;2768;53.540;10.224;2023-03-04T19:54:13;7.40;;;2.40;;
5491;SDS011;2768;53.540;10.224;2023-03-04T20:00:07;5.97;;;2.20;;
5491;SDS011;2768;53.540;10.224;2023-03-04T20:06:03;4.97;;;2.33;;
5491;SDS011;2768;53.540;10.224;2023-03-04T20:11:59;6.83;;;2.60;;
5491;SDS011;2768;53.540;10.224;2023-03-04T20:17:52;8.53;;;2.00;;
5491;SDS011;2768;53.540;10.224;2023-03-04T20:23:46;3.07;;;1.80;;
5491;SDS011;2768;53.540;10.224;2023-03-04T20:29:39;8.10;;;2.23;;
5491;SDS011;2768;53.540;10.224;2023-03-04T20:35:32;5.33;;;1.70;;
5491;SDS011;2768;53.540;10.224;2023-03-04T20:41:27;3.47;;;1.70;;
5491;SDS011;2768;53.540;10.224;2023-03-04T20:47:20;3.70;;;1.30;;
5491;SDS011;2768;53.540;10.224;2023-03-04T20:53:13;3.47;;;1.87;;
5491;SDS011;2768;53.540;10.224;2023-03-04T20:59:08;5.50;;;2.30;;
5491;SDS011;2768;53.540;10.224;2023-03-04T21:05:02;5.50;;;1.90;;
5491;SDS011;2768;53.540;10.224;2023-03-04T21:10:55;4.03;;;2.37;;
5491;SDS011;2768;53.540;10.224;2023-03-04T21:16:50;6.17;;;3.83;;
5491;SDS011;2768;53.540;10.224;2023-03-04T21:22:45;6.93;;;2.17;;
5491;SDS011;2768;53.540;10.224;2023-03-04T21:28:38;6.40;;;2.30;;
5491;SDS011;2768;53.540;10.224;2023-03-04T21:34:35;4.77;;;2.00;;
5491;SDS011;2768;53.540;10.224;2023-03-04T21:40:30;3.40;;;1.70;;
5491;SDS011;2768;53.540;10.224;2023-03-04T21:46:23;5.97;;;2.00;;
5491;SDS011;2768;53.540;10.224;2023-03-04T21:52:18;5.73;;;1.63;;
5491;SDS011;2768;53.540;10.224;2023-03-04T21:58:12;3.83;;;2.07;;
5491;SDS011;2768;53.540;10.224;2023-03-04T22:04:05;5.60;;;2.03;;
5491;SDS011;2768;53.540;10.224;2023-03-04T22:09:59;6.33;;;2.17;;
5491;SDS011;2768;53.540;10.224;2023-03-04T22:15:55;6.77;;;2.00;;
5491;SDS011;2768;53.540;10.224;2023-03-04T22:21:49;4.63;;;2.03;;
5491;SDS011;2768;53.540;10.224;2023-03-04T22:27:44;6.67;;;1.87;;
5491;SDS011;2768;53.540;10.224;2023-03-04T22:33:37;4.77;;;1.93;;
5491;SDS011;2768;53.540;10.224;2023-03-04T22:39:30;7.97;;;3.20;;
5491;SDS011;2768;53.540;10.224;2023-03-04T22:45:24;5.43;;;2.20;;
5491;SDS011;2768;53.540;10.224;2023-03-04T22:51:18;5.43;;;2.13;;
5491;SDS011;2768;53.540;10.224;2023-03-04T22:57:12;3.77;;;1.30;;
5491;SDS011;2768;53.540;10.224;2023-03-04T23:03:06;3.23;;;1.53;;
5491;SDS011;2768;53.540;10.224;2023-03-04T23:09:00;5.63;;;2.23;;
5491;SDS011;2768;53.540;10.224;2023-03-04T23:14:54;4.87;;;1.67;;
5491;SDS011;2768;53.540;10.224;2023-03-04T23:20:48;5.80;;;1.33;;
5491;SDS011;2768;53.540;10.224;2023-03-04T23:26:42;6.43;;;1.90;;
5491;SDS011;2768;53.540;10.224;2023-03-04T23:32:35;3.93;;;1.50;;
5491;SDS011;2768;53.540;10.224;2023-03-04T23:38:30;5.20;;;1.80;;
5491;SDS011;2768;53.540;10.224;2023-03-04T23:44:23;5.93;;;1.80;;
5491;SDS011;2768;53.540;10.224;2023-03-04T23:50:16;4.10;;;1.63;;
5491;SDS011;2768;53.540;10.224;2023-03-04T23:56:12;10.27;;;2.37;;
